Blue Oak Ranch Reserve, California Weather observations

Data are for 10 minute period ending at time listed.
 Day   Time   Solar   Ave.   Ave.  Ave.  Vector  Max.   Baro.   Total    
  of    of     Rad.   Air    Rel.  Wind   Wind   Wind  Press.  Precip.   
Year   Day            Temp.  Hum.  Speed  Dir.   Gust                    
2026   (PST)  Kw/m2    F      %     mph   deg.    mph    mb.     in.     
-------------------------------------------------------------------------
 124   15:00   0.18   56.1    65    4.4   295     7.2   948.3    0.00 
 124   15:10   0.11   55.3    66    3.9   312     8.9   948.3    0.00 
 124   15:20   0.12   54.7    68    5.8   302    11.0   948.2    0.00 
 124   15:30   0.10   54.6    68    6.2   294    10.9   948.3    0.00 
 124   15:40   0.07   54.2    69    7.2   300    11.2   948.2    0.00 
 124   15:50   0.07   53.7    70    6.6   304    11.5   948.2    0.00 
 124   16:00   0.08   53.7    70    6.6   298    10.2   948.2    0.00 
 124   16:10   0.05   53.7    70    4.8   290     8.7   948.3    0.00 
 124   16:20   0.04   53.7    70    4.9   291     9.1   948.4    0.00 
 124   16:30   0.07   53.5    71    4.3   300     8.5   948.5    0.00 
 124   16:40   0.09   53.5    70    5.7   302     9.8   948.5    0.00 
 124   16:50   0.10   53.2    71    7.8   298    12.2   948.4    0.00 
 124   17:00   0.10   52.8    71    6.8   307    11.8   948.3    0.00 
 124   17:10   0.12   52.9    71    6.7   296    10.7   948.2    0.00 
 124   17:20   0.09   53.1    71    6.1   290    11.3   948.1    0.00 
 124   17:30   0.07   53.0    71    4.7   296     8.8   948.0    0.00 
 124   17:40   0.05   53.0    71    4.5   292     8.3   948.0    0.00 
 124   17:50   0.04   52.8    71    5.0   307     8.3   947.9    0.00 
 124   18:00   0.04   52.6    71    3.4   300     7.3   947.9    0.00 
 124   18:10   0.03   52.4    71    5.7   288    10.1   947.8    0.00 
 124   18:20   0.02   52.0    70    4.7   292     7.2   948.0    0.00 
 124   18:30   0.01   51.7    70    4.3   298     8.5   948.0    0.00 
 124   18:40   0.01   51.4    72    2.9   304     6.4   948.0    0.00 
 124   18:50   0.00   51.2    73    3.1   295     6.0   948.0    0.00 
 124   19:00   0.00   51.0    74    2.7   282     5.3   947.9    0.00 
 124   19:10   0.00   50.7    75    3.2   270     5.5   947.8    0.00 
 124   19:20   0.00   50.3    76    2.5   267     4.1   947.8    0.00 
 124   19:30   0.00   49.9    78    1.7   295     2.8   947.9    0.00 
 124   19:40   0.00   49.5    79    1.7   278     4.3   948.1    0.00 
 124   19:50   0.00   48.9    81    1.2   317     2.1   948.2    0.00 
 124   20:00   0.00   48.5    82    0.5   261     2.0   948.3    0.00 
 124   20:10   0.00   48.1    83    1.0   292     1.9   948.3    0.00 
 124   20:20   0.00   47.7    84    1.5   292     2.2   948.4    0.00 
 124   20:30   0.00   47.2    85    1.8   294     2.4   948.5    0.00 
 124   20:40   0.00   47.0    87    0.3   318     1.4   948.6    0.00 
 124   20:50   0.00   47.0    88    1.1   351     2.5   948.7    0.00 
 124   21:00   0.00   47.2    88    1.0   297     1.6   948.8    0.00 
 124   21:10   0.00   47.2    89    1.8   288     2.2   948.9    0.00 
 124   21:20   0.00   47.2    89    2.4   254     4.2   948.9    0.00 
 124   21:30   0.00   47.4    89    2.0   294     4.7   948.7    0.00 
 124   21:40   0.00   47.7    90    2.0   289     4.9   948.6    0.00 
 124   21:50   0.00   47.6    89    2.8   279     5.0   948.5    0.00 
 124   22:00   0.00   47.3    89    2.0   279     3.3   948.4    0.00 
 124   22:10   0.00   47.1    88    2.4   307     4.7   948.4    0.00 
 124   22:20   0.00   47.2    88    2.7   325     5.0   948.5    0.00 
 124   22:30   0.00   47.3    88    1.8   307     3.7   948.5    0.00 
 124   22:40   0.00   47.3    89    2.5   277     4.9   948.4    0.00 
 124   22:50   0.00   47.3    89    2.2   267     4.5   948.4    0.00 
 124   23:00   0.00   47.3    90    3.0   289     5.9   948.5    0.00 
 124   23:10   0.00   47.3    90    4.2   287     6.9   948.6    0.00 
 124   23:20   0.00   47.3    90    3.1   290     6.0   948.7    0.00 
 124   23:30   0.00   47.3    90    2.6   286     4.9   948.7    0.00 
 124   23:40   0.00   47.4    90    3.2   288     6.1   948.7    0.00 
 124   23:50   0.00   47.3    90    5.2   286     8.8   948.8    0.00 
 125    0:00   0.00   47.3    90    3.4   283     6.1   948.8    0.00 
 125    0:10   0.00   47.3    90    5.0   286     7.8   948.7    0.00 
 125    0:20   0.00   47.2    90    5.6   288     8.0   948.7    0.00 
 125    0:30   0.00   47.1    90    4.3   288     8.0   948.6    0.00 
 125    0:40   0.00   47.0    91    4.4   280     8.3   948.5    0.00 
 125    0:50   0.00   47.0    91    3.0   278     5.2   948.4    0.00 
 125    1:00   0.00   47.0    91    2.5   276     4.8   948.4    0.00 
 125    1:10   0.00   47.0    91    2.8   276     4.0   948.2    0.00 
 125    1:20   0.00   47.0    91    1.6   277     3.8   948.2    0.00 
 125    1:30   0.00   47.0    91    1.2   287     2.5   948.2    0.00 
 125    1:40   0.00   46.9    91    1.9   240     3.2   947.9    0.00 
 125    1:50   0.00   46.7    92    2.3   235     3.9   948.0    0.00 
 125    2:00   0.00   46.6    92    1.0   233     2.1   948.0    0.00 
 125    2:10   0.00   46.7    92    1.0   262     2.4   948.0    0.00 
 125    2:20   0.00   46.6    92    2.7   278     4.2   947.9    0.00 
 125    2:30   0.00   46.7    92    1.7   256     4.1   947.8    0.00 
 125    2:40   0.00   46.7    92    3.3   280     5.0   947.8    0.00 
 125    2:50   0.00   46.5    92    3.8   289     5.8   947.8    0.00 
 125    3:00   0.00   46.3    92    2.3   305     4.6   948.0    0.00 
 125    3:10   0.00   46.4    92    2.9   274     4.4   947.8    0.00 
 125    3:20   0.00   46.4    91    1.8   284     3.9   948.0    0.00 
 125    3:30   0.00   46.3    91    2.2   276     3.7   947.9    0.00 
 125    3:40   0.00   46.3    91    2.6   294     3.4   948.0    0.00 
 125    3:50   0.00   46.3    92    2.0   277     3.7   948.0    0.00 
 125    4:00   0.00   46.3    92    1.2   268     3.4   948.0    0.00 
 125    4:10   0.00   46.3    92    1.3   253     2.6   947.9    0.00 
 125    4:20   0.00   46.3    92    1.2   277     2.4   947.9    0.00 
 125    4:30   0.00   46.3    92    1.7   273     2.5   947.8    0.00 
 125    4:40   0.00   46.4    92    1.7   268     3.7   947.8    0.00 
 125    4:50   0.00   46.4    92    2.8   288     4.9   947.7    0.00 
 125    5:00   0.00   46.5    92    1.6   272     3.6   947.6    0.00 
 125    5:10   0.00   46.5    92    2.5   275     3.5   947.7    0.00 
 125    5:20   0.00   46.5    92    1.8   272     3.7   947.7    0.00 
 125    5:30   0.00   46.5    92    2.3   262     4.5   947.7    0.00 
 125    5:40   0.01   46.4    92    1.8   264     3.7   947.7    0.00 
 125    5:50   0.01   46.4    92    3.1   277     6.2   947.8    0.00 
 125    6:00   0.01   46.6    92    4.3   283     6.3   948.0    0.00 
 125    6:10   0.01   46.5    92    2.7   279     4.5   948.1    0.00 
 125    6:20   0.02   46.6    93    3.6   279     5.8   948.1    0.00 
 125    6:30   0.03   46.7    93    3.3   284     6.4   948.2    0.00 
 125    6:40   0.03   46.8    93    0.9   323     5.3   948.3    0.00 
 125    6:50   0.05   46.6    91    2.1   211     4.0   948.3    0.00 
 125    7:00   0.06   47.2    91    2.2   174     4.4   948.4    0.00 
 125    7:10   0.05   47.4    91    0.6   120     1.7   948.4    0.00 
 125    7:20   0.07   47.6    89    0.1   100     1.0   948.5    0.00 
 125    7:30   0.12   48.2    87    1.0   262     4.1   948.4    0.00 
 125    7:40   0.10   48.9    82    2.9   273     5.6   948.6    0.00 
 125    7:50   0.13   49.2    80    3.0   268     5.6   948.6    0.00 
 125    8:00   0.13   49.4    80    3.0   256     5.1   948.7    0.00 
 125    8:10   0.16   49.7    80    3.8   271     6.0   948.6    0.00 
 125    8:20   0.11   49.9    80    3.5   267     5.7   948.7    0.00 
 125    8:30   0.09   49.6    80    2.5   251     4.5   948.8    0.00 
 125    8:40   0.07   49.4    82    3.7   265     5.7   948.9    0.00 
 125    8:50   0.09   49.3    82    3.3   261     6.2   948.9    0.00 
 125    9:00   0.08   49.3    84    3.3   261     5.8   949.0    0.00 
 125    9:10   0.10   49.2    86    3.1   270     4.9   949.0    0.00 
 125    9:20   0.10   49.4    88    3.7   275     5.8   949.0    0.00 
 125    9:30   0.15   49.4    89    4.1   284     5.6   949.0    0.00 
 125    9:40   0.19   50.0    91    3.8   268     7.1   949.1    0.00 
 125    9:50   0.16   49.3    91    2.5   238     5.3   949.2    0.00 
 125   10:00   0.21   49.7    92    3.5   267     6.8   949.3    0.00 
 125   10:10   0.20   49.8    92    6.1   282    10.5   949.4    0.00 
 125   10:20   0.21   49.5    92    6.7   289    10.0   949.5    0.00 
 125   10:30   0.22   49.6    92    5.2   286     8.5   949.5    0.00 
 125   10:40   0.25   49.7    92    5.3   283     8.5   949.5    0.00 
 125   10:50   0.27   50.3    90    4.7   288     9.0   949.5    0.00 
 125   11:00   0.13   50.2    89    4.9   286    10.5   949.6    0.00 
 125   11:10   0.26   50.3    90    4.8   290     9.6   949.7    0.00 
 125   11:20   0.30   50.9    87    5.7   284    10.7   949.7    0.00 
 125   11:30   0.27   51.6    84    6.7   292    10.8   949.7    0.00 
 125   11:40   0.28   51.4    84    6.9   284    12.1   949.8    0.00 
 125   11:50   0.39   52.4    80    6.1   290    13.2   949.8    0.00 
 125   12:00   0.23   52.2    79    4.7   306     8.3   949.8    0.00 
 125   12:10   0.21   51.8    80    5.7   306     9.3   949.7    0.00 
 125   12:20   0.29   52.4    80    6.3   279    10.2   949.7    0.00 
 125   12:30   0.27   53.0    78    5.7   291     9.6   949.6    0.00 
 125   12:40   0.37   53.1    78    5.8   292    10.0   949.6    0.00 
 125   12:50   0.35   53.3    76    6.3   302    12.0   949.6    0.00 
 125   13:00   0.35   53.5    76    5.7   295    11.2   949.6    0.00 
 125   13:10   0.36   54.1    74    4.3   298     7.7   949.6    0.00 
 125   13:20   0.31   54.6    73    3.7   304     7.3   949.7    0.00 
 125   13:30   0.18   54.0    74    5.8   303     9.6   949.6    0.00 
 125   13:40   0.14   53.7    75    5.4   289     8.9   949.5    0.00 
 125   13:50   0.14   53.8    76    5.6   286     9.8   949.5    0.00 
 125   14:00   0.14   53.9    77    6.6   284     9.8   949.5    0.00 
 125   14:10   0.16   53.6    77    5.8   278     9.6   949.5    0.00 
 125   14:20   0.14   53.8    77    4.8   280     7.7   949.4    0.00 
 125   14:30   0.14   53.8    77    4.5   287     6.8   949.4    0.00 
 125   14:40   0.12   53.6    78    5.2   294     8.3   949.3    0.00 
 125   14:50   0.16   53.7    77    5.0   286     7.5   949.4    0.00 

Return to Blue Oak Ranch Reserve graphs page.


Western Regional Climate Center,wrcc@dri.edu